Time;durP1;ratioP1;P1;durP2;ratioP2;P2;SDS_P1;SDS_P2;PMS_P1;PMS_P2;Temp;Humidity;BMP_temperature;BMP_pressure;BME280_temperature;BME280_humidity;BME280_pressure;Samples;Min_cycle;Max_cycle;Signal;HPM_P1;HPM_P2
2022/12/09 00:04:27;;;;;;;23.03;13.63;;;;;1.50;100119.00;;;;9739553;30;20214;-75
2022/12/09 00:09:30;;;;;;;22.63;13.27;;;;;1.40;100117.00;;;;9737008;30;20273;-75
2022/12/09 00:14:32;;;;;;;20.27;12.83;;;;;1.30;100107.00;;;;9743380;30;20207;-75
2022/12/09 00:19:34;;;;;;;26.93;11.83;;;;;1.20;100105.00;;;;9743516;30;20206;-75
2022/12/09 00:24:36;;;;;;;18.37;11.73;;;;;1.00;100099.00;;;;9757252;30;20203;-75
2022/12/09 00:29:38;;;;;;;21.63;11.13;;;;;0.80;100102.00;;;;9757923;30;20261;-75
2022/12/09 00:34:41;;;;;;;18.97;10.43;;;;;0.60;100103.00;;;;9764582;30;20221;-75
2022/12/09 00:39:43;;;;;;;17.53;10.57;;;;;0.40;100093.00;;;;9764573;30;20434;-75
2022/12/09 00:44:45;;;;;;;17.17;10.43;;;;;0.30;100096.00;;;;9757413;30;20290;-75
2022/12/09 00:49:47;;;;;;;16.63;11.27;;;;;0.20;100095.00;;;;9752084;30;20230;-75
2022/12/09 00:54:49;;;;;;;16.03;11.37;;;;;0.10;100090.00;;;;9735593;30;20214;-75
2022/12/09 00:59:51;;;;;;;19.00;11.53;;;;;0.00;100094.00;;;;9749617;30;20204;-75
2022/12/09 01:04:53;;;;;;;19.20;12.07;;;;;-0.10;100081.00;;;;9763396;30;20214;-75
2022/12/09 01:09:55;;;;;;;26.83;11.77;;;;;-0.10;100081.00;;;;9763122;30;20300;-75
2022/12/09 01:14:58;;;;;;;20.60;12.33;;;;;-0.20;100091.00;;;;9763074;30;20702;-75
2022/12/09 01:20:00;;;;;;;20.93;11.07;;;;;-0.30;100076.00;;;;9763351;30;20297;-75
2022/12/09 01:25:02;;;;;;;30.10;14.00;;;;;-0.40;100083.00;;;;9762331;30;20273;-75
2022/12/09 01:30:08;;;;;;;24.37;11.57;;;;;-0.40;100092.00;;;;9729953;30;20237;-75
2022/12/09 01:35:10;;;;;;;19.43;11.97;;;;;-0.40;100098.00;;;;9733956;30;20269;-75
2022/12/09 01:40:15;;;;;;;22.10;12.20;;;;;-0.50;100108.00;;;;9740777;30;20206;-75
2022/12/09 01:45:21;;;;;;;17.83;12.03;;;;;-0.50;100102.00;;;;9740719;30;20293;-75
2022/12/09 01:50:28;;;;;;;19.90;10.80;;;;;-0.70;100108.00;;;;9770322;30;20304;-75
2022/12/09 01:55:30;;;;;;;19.53;12.07;;;;;-0.80;100102.00;;;;9776259;30;20201;-75
2022/12/09 02:00:33;;;;;;;21.13;11.73;;;;;-0.80;100093.00;;;;9776591;30;20200;-75
2022/12/09 02:05:36;;;;;;;24.33;12.37;;;;;-0.80;100101.00;;;;9744530;30;20293;-75
2022/12/09 02:11:03;;;;;;;19.90;12.53;;;;;-0.80;100094.00;;;;9754656;30;20222;-75
2022/12/09 02:16:09;;;;;;;21.53;11.17;;;;;-0.80;100091.00;;;;9754353;30;20319;-76
2022/12/09 02:21:22;;;;;;;23.37;12.07;;;;;-0.80;100070.00;;;;9725755;30;20610;-76
2022/12/09 02:26:42;;;;;;;21.97;11.87;;;;;-0.90;100076.00;;;;9711516;30;20594;-75
2022/12/09 02:31:59;;;;;;;20.40;12.37;;;;;-0.90;100073.00;;;;9730002;30;20318;-76
2022/12/09 02:37:18;;;;;;;23.37;12.77;;;;;-0.90;100056.00;;;;9746158;30;20286;-75
2022/12/09 02:42:31;;;;;;;20.53;12.07;;;;;-0.90;100054.00;;;;9724965;30;20234;-76
2022/12/09 02:47:39;;;;;;;24.57;12.50;;;;;-1.00;100061.00;;;;9739840;30;20714;-75
2022/12/09 02:52:47;;;;;;;23.37;12.40;;;;;-1.00;100066.00;;;;9732128;30;20213;-75
2022/12/09 02:57:55;;;;;;;29.27;13.43;;;;;-1.00;100054.00;;;;9761273;30;20190;-75
2022/12/09 03:03:01;;;;;;;22.97;12.43;;;;;-1.00;100054.00;;;;9733404;30;20261;-75
2022/12/09 03:08:13;;;;;;;19.33;11.70;;;;;-1.10;100055.00;;;;9798108;30;20256;-75
2022/12/09 03:13:25;;;;;;;22.37;11.67;;;;;-1.10;100054.00;;;;9782349;30;20193;-75
2022/12/09 03:18:29;;;;;;;25.90;12.70;;;;;-1.20;100055.00;;;;9762499;30;20207;-75
2022/12/09 03:23:33;;;;;;;23.97;12.90;;;;;-1.20;100043.00;;;;9742460;30;20205;-75
2022/12/09 03:28:41;;;;;;;23.63;12.80;;;;;-1.30;100041.00;;;;9766004;30;20296;-75
2022/12/09 03:33:47;;;;;;;28.80;13.70;;;;;-1.40;100036.00;;;;9739162;30;20769;-75
2022/12/09 03:38:51;;;;;;;20.60;11.30;;;;;-1.50;100038.00;;;;9796478;30;20194;-75
2022/12/09 03:44:11;;;;;;;21.97;12.07;;;;;-1.50;100037.00;;;;9752162;30;20206;-75
2022/12/09 03:49:13;;;;;;;23.13;12.10;;;;;-1.60;100031.00;;;;9796239;30;20220;-75
2022/12/09 03:54:45;;;;;;;24.53;11.80;;;;;-1.70;100018.00;;;;9780888;30;20555;-75
2022/12/09 03:59:59;;;;;;;28.53;13.13;;;;;-1.70;100010.00;;;;9750208;30;20625;-75
2022/12/09 04:05:02;;;;;;;20.77;12.23;;;;;-1.70;100010.00;;;;9766120;30;20209;-75
2022/12/09 04:10:06;;;;;;;24.63;12.63;;;;;-1.70;100011.00;;;;9780147;30;20316;-75
2022/12/09 04:15:09;;;;;;;27.00;13.17;;;;;-1.70;100008.00;;;;9795464;30;20213;-75
2022/12/09 04:20:11;;;;;;;26.23;13.13;;;;;-1.80;100011.00;;;;9779725;30;20690;-75
2022/12/09 04:25:16;;;;;;;32.07;13.57;;;;;-1.80;100018.00;;;;9779673;30;20205;-75
2022/12/09 04:30:18;;;;;;;25.47;12.17;;;;;-1.80;100011.00;;;;9779315;30;20249;-75
2022/12/09 04:35:21;;;;;;;27.10;13.27;;;;;-1.90;100014.00;;;;9765277;30;20256;-74
2022/12/09 04:40:23;;;;;;;25.57;12.43;;;;;-1.90;100014.00;;;;9764710;30;20237;-75
2022/12/09 04:45:26;;;;;;;31.27;13.63;;;;;-2.00;100014.00;;;;9778890;30;20222;-75
2022/12/09 04:50:28;;;;;;;23.43;13.07;;;;;-2.00;100019.00;;;;9778626;30;20279;-75
2022/12/09 04:55:30;;;;;;;30.67;13.97;;;;;-2.10;100031.00;;;;9749896;30;20411;-75
2022/12/09 05:00:32;;;;;;;25.73;12.10;;;;;-2.20;100025.00;;;;9764221;30;20206;-75
2022/12/09 05:05:38;;;;;;;29.73;13.30;;;;;-2.30;100023.00;;;;9764011;30;20214;-75
2022/12/09 05:10:45;;;;;;;29.40;13.27;;;;;-2.20;100026.00;;;;9777803;30;20232;-75
2022/12/09 05:15:47;;;;;;;26.27;13.20;;;;;-2.10;100035.00;;;;9763388;30;20562;-75
2022/12/09 05:20:50;;;;;;;30.97;13.87;;;;;-2.00;100050.00;;;;9777712;30;20190;-75
2022/12/09 05:25:54;;;;;;;33.17;13.50;;;;;-1.70;100057.00;;;;9759455;30;20305;-75
2022/12/09 05:31:01;;;;;;;34.20;15.03;;;;;-1.60;100076.00;;;;9751255;30;20225;-75
2022/12/09 05:36:03;;;;;;;37.30;15.10;;;;;-1.40;100095.00;;;;9776313;30;20202;-75
2022/12/09 05:41:06;;;;;;;33.50;16.20;;;;;-1.30;100098.00;;;;9760928;30;20285;-75
2022/12/09 05:46:09;;;;;;;29.10;13.30;;;;;-1.20;100092.00;;;;9756520;30;20285;-75
2022/12/09 05:51:15;;;;;;;28.93;12.80;;;;;-1.20;100104.00;;;;9771522;30;20681;-75
2022/12/09 05:56:18;;;;;;;44.97;15.33;;;;;-1.20;100113.00;;;;9721464;30;20210;-74
2022/12/09 06:01:21;;;;;;;33.20;15.80;;;;;-1.10;100096.00;;;;9759952;30;20295;-74
2022/12/09 06:06:26;;;;;;;31.00;14.53;;;;;-1.00;100092.00;;;;9732395;30;20215;-74
2022/12/09 06:11:30;;;;;;;33.87;14.17;;;;;-0.90;100073.00;;;;9747608;30;20226;-75
2022/12/09 06:16:33;;;;;;;33.57;14.40;;;;;-0.90;100061.00;;;;9715277;30;20253;-75
2022/12/09 06:21:39;;;;;;;38.90;15.03;;;;;-0.90;100055.00;;;;9753722;30;20198;-75
2022/12/09 06:26:42;;;;;;;36.77;14.50;;;;;-0.80;100062.00;;;;9719675;30;20605;-74
2022/12/09 06:31:44;;;;;;;43.97;15.37;;;;;-0.80;100065.00;;;;9728784;30;20230;-74
2022/12/09 06:36:47;;;;;;;37.77;15.77;;;;;-0.70;100065.00;;;;9726288;30;20341;-75
2022/12/09 06:41:49;;;;;;;49.77;16.27;;;;;-0.70;100075.00;;;;9706389;30;20284;-75
2022/12/09 06:46:51;;;;;;;37.13;16.00;;;;;-0.60;100063.00;;;;9755233;30;20240;-74
2022/12/09 06:51:53;;;;;;;42.60;17.27;;;;;-0.60;100054.00;;;;9755187;30;20279;-74
2022/12/09 06:56:56;;;;;;;42.33;17.03;;;;;-0.60;100062.00;;;;9756982;30;20264;-75
2022/12/09 07:01:58;;;;;;;37.60;15.90;;;;;-0.50;100058.00;;;;9757146;30;20198;-74
2022/12/09 07:07:00;;;;;;;41.70;16.50;;;;;-0.50;100060.00;;;;9786368;30;20206;-75
2022/12/09 07:12:03;;;;;;;40.97;16.63;;;;;-0.50;100050.00;;;;9754866;30;20280;-75
2022/12/09 07:17:06;;;;;;;44.53;16.67;;;;;-0.40;100055.00;;;;9771118;30;20566;-74
2022/12/09 07:22:08;;;;;;;38.70;16.33;;;;;-0.40;100060.00;;;;9752082;30;20574;-74
2022/12/09 07:27:13;;;;;;;40.27;16.47;;;;;-0.40;100055.00;;;;9766715;30;20252;-75
2022/12/09 07:32:20;;;;;;;37.43;16.20;;;;;-0.40;100067.00;;;;9752327;30;20218;-74
2022/12/09 07:37:22;;;;;;;45.53;15.47;;;;;-0.30;100067.00;;;;9731791;30;20319;-75
2022/12/09 07:42:24;;;;;;;42.83;14.77;;;;;-0.30;100077.00;;;;9746783;30;20226;-74
2022/12/09 07:47:29;;;;;;;34.47;14.97;;;;;-0.20;100069.00;;;;9725799;30;20309;-74
2022/12/09 07:52:31;;;;;;;38.67;15.67;;;;;-0.20;100068.00;;;;9753666;30;20236;-74
2022/12/09 07:57:34;;;;;;;50.97;15.73;;;;;-0.20;100067.00;;;;9756889;30;20205;-74
2022/12/09 08:02:36;;;;;;;49.27;17.30;;;;;-0.10;100061.00;;;;9747438;30;20202;-74
2022/12/09 08:07:38;;;;;;;43.07;16.60;;;;;-0.10;100061.00;;;;9753030;30;20202;-74
2022/12/09 08:12:45;;;;;;;34.90;14.50;;;;;0.00;100066.00;;;;9770394;30;20233;-75
2022/12/09 08:17:47;;;;;;;40.93;16.23;;;;;0.00;100061.00;;;;9734966;30;20237;-74
2022/12/09 08:22:50;;;;;;;49.43;14.67;;;;;0.10;100067.00;;;;9728315;30;20286;-74
2022/12/09 08:27:52;;;;;;;39.97;13.97;;;;;0.10;100077.00;;;;9742566;30;20230;-75
2022/12/09 08:32:55;;;;;;;44.13;14.40;;;;;0.10;100074.00;;;;9752170;30;20249;-74
2022/12/09 08:37:57;;;;;;;38.07;13.27;;;;;0.10;100075.00;;;;9761054;30;20547;-74
2022/12/09 08:43:01;;;;;;;42.10;13.33;;;;;0.10;100083.00;;;;9746436;30;20212;-74
2022/12/09 08:48:04;;;;;;;37.97;12.87;;;;;0.20;100079.00;;;;9724159;30;20275;-74
2022/12/09 08:53:06;;;;;;;31.57;11.07;;;;;0.20;100094.00;;;;9746771;30;20256;-74
2022/12/09 08:58:09;;;;;;;23.53;9.97;;;;;0.20;100089.00;;;;9752467;30;20209;-74
2022/12/09 09:03:11;;;;;;;38.33;11.17;;;;;0.10;100095.00;;;;9756926;30;20194;-74
2022/12/09 09:08:13;;;;;;;28.40;11.47;;;;;0.10;100089.00;;;;9745351;30;20772;-74
2022/12/09 09:13:15;;;;;;;30.73;12.57;;;;;0.10;100092.00;;;;9741997;30;20241;-74
2022/12/09 09:18:18;;;;;;;36.20;11.47;;;;;0.20;100096.00;;;;9750281;30;20197;-74
2022/12/09 09:23:20;;;;;;;29.07;11.40;;;;;0.20;100094.00;;;;9752087;30;20954;-74
2022/12/09 09:28:22;;;;;;;28.17;10.33;;;;;0.30;100096.00;;;;9775866;30;20257;-74
2022/12/09 09:33:32;;;;;;;29.73;11.47;;;;;0.40;100087.00;;;;9751887;30;20198;-74
2022/12/09 09:38:34;;;;;;;33.07;11.97;;;;;0.40;100100.00;;;;9727201;30;20207;-75
2022/12/09 09:43:37;;;;;;;32.40;11.97;;;;;0.40;100095.00;;;;9760139;30;20808;-74
2022/12/09 09:48:40;;;;;;;36.33;13.23;;;;;0.40;100101.00;;;;9729371;30;20202;-75
2022/12/09 09:53:43;;;;;;;32.80;13.03;;;;;0.40;100092.00;;;;9749393;30;20586;-75
2022/12/09 09:59:16;;;;;;;34.27;12.03;;;;;0.50;100095.00;;;;9775737;30;20289;-75
2022/12/09 10:04:37;;;;;;;36.73;13.40;;;;;0.60;100097.00;;;;9732862;30;20209;-75
2022/12/09 10:10:12;;;;;;;33.83;12.30;;;;;0.70;100093.00;;;;9746089;30;20265;-75
2022/12/09 10:15:21;;;;;;;34.53;13.13;;;;;0.80;100087.00;;;;9725474;30;20222;-75
2022/12/09 10:20:28;;;;;;;37.23;12.90;;;;;0.90;100089.00;;;;9760901;30;20212;-75
2022/12/09 10:25:35;;;;;;;38.77;13.33;;;;;0.90;100093.00;;;;9775696;30;20289;-75
2022/12/09 10:30:38;;;;;;;33.80;12.57;;;;;1.00;100085.00;;;;9760000;30;20333;-75
2022/12/09 10:35:46;;;;;;;28.03;10.33;;;;;1.10;100084.00;;;;9746453;30;20268;-75
2022/12/09 10:41:01;;;;;;;39.53;12.87;;;;;1.20;100075.00;;;;9732187;30;20230;-76
2022/12/09 10:46:06;;;;;;;35.40;12.20;;;;;1.20;100065.00;;;;9760481;30;20219;-76
2022/12/09 10:51:37;;;;;;;25.63;11.37;;;;;1.30;100062.00;;;;9765801;30;20226;-76
2022/12/09 10:57:01;;;;;;;21.90;9.57;;;;;1.40;100065.00;;;;9724639;30;20213;-75
2022/12/09 11:02:07;;;;;;;25.93;9.57;;;;;1.50;100063.00;;;;9753266;30;20710;-76
2022/12/09 11:07:19;;;;;;;17.17;8.27;;;;;1.60;100058.00;;;;9750636;30;20233;-76
2022/12/09 11:12:29;;;;;;;16.53;8.17;;;;;1.60;100047.00;;;;9767065;30;20222;-76
2022/12/09 11:18:03;;;;;;;15.43;7.53;;;;;1.60;100050.00;;;;9767064;30;20217;-76
2022/12/09 11:23:12;;;;;;;17.57;9.30;;;;;1.50;100055.00;;;;9770326;30;20258;-76
2022/12/09 11:28:14;;;;;;;24.47;9.33;;;;;1.50;100051.00;;;;9770578;30;20256;-76
2022/12/09 11:33:21;;;;;;;22.00;8.83;;;;;1.50;100060.00;;;;9755096;30;20312;-76
2022/12/09 11:38:33;;;;;;;28.60;9.97;;;;;1.40;100055.00;;;;9766475;30;20240;-76
2022/12/09 11:43:44;;;;;;;35.50;12.43;;;;;1.40;100053.00;;;;9788147;30;20601;-76
2022/12/09 11:48:57;;;;;;;27.00;10.90;;;;;1.40;100049.00;;;;9765877;30;20205;-76
2022/12/09 11:54:09;;;;;;;32.23;11.17;;;;;1.60;100047.00;;;;9731136;30;20218;-76
2022/12/09 11:59:22;;;;;;;28.13;11.63;;;;;1.50;100043.00;;;;9762446;30;20206;-76
2022/12/09 12:04:31;;;;;;;25.43;12.17;;;;;1.40;100049.00;;;;9762219;30;20884;-76
2022/12/09 12:09:40;;;;;;;23.43;10.13;;;;;1.40;100035.00;;;;9748126;30;20288;-76
2022/12/09 12:14:44;;;;;;;23.60;10.67;;;;;1.30;100051.00;;;;9763870;30;20547;-76
2022/12/09 12:19:51;;;;;;;22.87;9.90;;;;;1.30;100042.00;;;;9765007;30;20202;-76
2022/12/09 12:25:06;;;;;;;24.33;10.90;;;;;1.20;100044.00;;;;9753528;30;20212;-76
2022/12/09 12:30:22;;;;;;;28.60;11.13;;;;;1.10;100050.00;;;;9758781;30;20244;-76
2022/12/09 12:35:36;;;;;;;22.93;9.70;;;;;1.00;100047.00;;;;9754168;30;20591;-76
2022/12/09 12:41:05;;;;;;;29.73;12.37;;;;;1.00;100041.00;;;;9749024;30;20765;-76
2022/12/09 12:46:26;;;;;;;25.57;11.03;;;;;0.90;100041.00;;;;9744064;30;20666;-76
2022/12/09 12:51:46;;;;;;;20.37;10.57;;;;;0.90;100040.00;;;;9757120;30;20228;-76
2022/12/09 12:57:25;;;;;;;30.73;11.27;;;;;1.00;100027.00;;;;9753975;30;20210;-76
2022/12/09 13:02:48;;;;;;;24.43;11.17;;;;;0.90;100036.00;;;;9727767;30;20571;-76
2022/12/09 13:08:13;;;;;;;27.00;12.07;;;;;1.00;100038.00;;;;9748625;30;20233;-76
2022/12/09 13:13:27;;;;;;;22.47;10.30;;;;;1.00;100029.00;;;;9763085;30;20245;-76
2022/12/09 13:18:37;;;;;;;23.33;11.07;;;;;1.10;100026.00;;;;9791502;30;20556;-76
2022/12/09 13:24:16;;;;;;;27.20;11.77;;;;;1.20;100033.00;;;;9791108;30;20291;-76
2022/12/09 13:29:29;;;;;;;27.00;11.33;;;;;1.20;100024.00;;;;9762281;30;20268;-76
2022/12/09 13:35:05;;;;;;;24.33;10.47;;;;;1.20;100026.00;;;;9747822;30;20214;-76
2022/12/09 13:40:19;;;;;;;24.77;11.63;;;;;1.10;100024.00;;;;9753989;30;20666;-76
2022/12/09 13:45:27;;;;;;;24.07;12.43;;;;;1.10;100038.00;;;;9763075;30;20232;-76
2022/12/09 13:50:50;;;;;;;30.30;11.73;;;;;1.10;100031.00;;;;9776084;30;20233;-76
2022/12/09 13:55:54;;;;;;;27.23;13.10;;;;;1.20;100039.00;;;;9777064;30;20205;-76
2022/12/09 14:01:35;;;;;;;26.37;13.27;;;;;1.10;100041.00;;;;9761597;30;20203;-76
2022/12/09 14:06:43;;;;;;;23.77;11.87;;;;;1.20;100045.00;;;;9749898;30;20225;-75
2022/12/09 14:11:51;;;;;;;20.27;9.33;;;;;1.30;100039.00;;;;9736777;30;20222;-76
2022/12/09 14:16:56;;;;;;;21.53;10.10;;;;;1.40;100044.00;;;;9741732;30;20658;-76
2022/12/09 14:22:19;;;;;;;21.63;11.70;;;;;1.40;100038.00;;;;9725335;30;20669;-76
2022/12/09 14:27:28;;;;;;;21.13;10.47;;;;;1.40;100041.00;;;;9720034;30;20312;-76
2022/12/09 14:32:35;;;;;;;19.13;10.43;;;;;1.30;100037.00;;;;9740701;30;20213;-76
2022/12/09 14:38:05;;;;;;;24.63;11.87;;;;;1.30;100036.00;;;;9737307;30;20202;-76
2022/12/09 14:43:31;;;;;;;27.37;12.40;;;;;1.20;100041.00;;;;9728582;30;20206;-76
2022/12/09 14:48:37;;;;;;;21.07;10.87;;;;;1.20;100048.00;;;;9719443;30;20221;-76
2022/12/09 14:53:39;;;;;;;24.50;11.83;;;;;1.10;100054.00;;;;9714391;30;20715;-76
2022/12/09 14:58:46;;;;;;;27.10;11.53;;;;;1.10;100055.00;;;;9746308;30;20206;-76
2022/12/09 15:03:54;;;;;;;26.67;12.47;;;;;1.00;100067.00;;;;9745540;30;20197;-76
2022/12/09 15:08:58;;;;;;;23.17;11.50;;;;;1.00;100083.00;;;;9725293;30;20617;-76
2022/12/09 15:14:26;;;;;;;23.40;10.97;;;;;1.00;100076.00;;;;9756535;30;20217;-76
2022/12/09 15:19:29;;;;;;;24.10;12.23;;;;;1.00;100076.00;;;;9760260;30;20586;-76
2022/12/09 15:24:52;;;;;;;27.07;12.57;;;;;0.90;100079.00;;;;9774245;30;20209;-76
2022/12/09 15:29:54;;;;;;;25.67;12.57;;;;;0.80;100073.00;;;;9773586;30;20241;-76
2022/12/09 15:35:15;;;;;;;25.43;13.00;;;;;0.80;100075.00;;;;9757906;30;20250;-76
2022/12/09 15:40:21;;;;;;;29.60;14.33;;;;;0.70;100067.00;;;;9735944;30;20248;-76
2022/12/09 15:45:26;;;;;;;28.27;12.90;;;;;0.70;100084.00;;;;9775035;30;20205;-76
2022/12/09 15:50:57;;;;;;;30.73;14.10;;;;;0.70;100069.00;;;;9745153;30;20249;-76
2022/12/09 15:56:12;;;;;;;28.97;13.97;;;;;0.70;100075.00;;;;9748316;30;20700;-76
2022/12/09 16:01:24;;;;;;;31.77;14.53;;;;;0.60;100063.00;;;;9750002;30;20301;-76
2022/12/09 16:06:36;;;;;;;34.97;15.30;;;;;0.50;100068.00;;;;9779238;30;20201;-76
2022/12/09 16:11:47;;;;;;;36.83;14.50;;;;;0.40;100065.00;;;;9715895;30;20230;-76
2022/12/09 16:16:54;;;;;;;29.43;13.60;;;;;0.40;100084.00;;;;9738179;30;20292;-76
2022/12/09 16:21:59;;;;;;;32.47;14.37;;;;;0.40;100075.00;;;;9762844;30;20198;-76
2022/12/09 16:27:04;;;;;;;29.20;13.10;;;;;0.50;100074.00;;;;9746922;30;20198;-76
2022/12/09 16:32:25;;;;;;;33.07;14.43;;;;;0.50;100070.00;;;;9723949;30;20210;-76
2022/12/09 16:37:41;;;;;;;28.73;14.30;;;;;0.50;100077.00;;;;9755265;30;20658;-76
2022/12/09 16:42:43;;;;;;;35.23;16.57;;;;;0.50;100080.00;;;;9732047;30;20674;-76
2022/12/09 16:47:46;;;;;;;42.40;16.10;;;;;0.60;100085.00;;;;9728960;30;20241;-76
2022/12/09 16:52:48;;;;;;;34.60;14.10;;;;;0.60;100084.00;;;;9786447;30;20300;-76
2022/12/09 16:57:50;;;;;;;26.97;13.60;;;;;0.60;100084.00;;;;9750189;30;20186;-76
2022/12/09 17:03:00;;;;;;;42.37;16.37;;;;;0.70;100106.00;;;;9792214;30;20216;-76
2022/12/09 17:08:02;;;;;;;31.77;13.00;;;;;0.60;100100.00;;;;9763141;30;20350;-76
2022/12/09 17:13:05;;;;;;;36.93;17.43;;;;;0.60;100104.00;;;;9763800;30;20213;-76
2022/12/09 17:18:08;;;;;;;35.73;16.33;;;;;0.50;100094.00;;;;9748665;30;20237;-76
2022/12/09 17:23:10;;;;;;;39.63;16.60;;;;;0.50;100106.00;;;;9749439;30;20208;-76
2022/12/09 17:28:12;;;;;;;44.03;16.77;;;;;0.50;100109.00;;;;9761514;30;20250;-76
2022/12/09 17:33:14;;;;;;;41.27;17.03;;;;;0.50;100119.00;;;;9713789;30;20218;-76
2022/12/09 17:38:16;;;;;;;38.07;16.53;;;;;0.40;100117.00;;;;9759877;30;20236;-76
2022/12/09 17:43:18;;;;;;;41.63;16.27;;;;;0.40;100118.00;;;;9748549;30;20301;-76
2022/12/09 17:48:20;;;;;;;37.53;14.50;;;;;0.30;100126.00;;;;9744641;30;20206;-76
2022/12/09 17:53:22;;;;;;;47.63;16.47;;;;;0.30;100128.00;;;;9726578;30;20206;-76
2022/12/09 17:58:24;;;;;;;39.30;14.87;;;;;0.30;100132.00;;;;9752124;30;20264;-76
2022/12/09 18:03:27;;;;;;;47.23;15.57;;;;;0.20;100131.00;;;;9764625;30;20199;-76
2022/12/09 18:08:49;;;;;;;32.67;15.80;;;;;0.20;100142.00;;;;9748281;30;20354;-76
2022/12/09 18:13:52;;;;;;;46.73;17.00;;;;;0.20;100135.00;;;;9770954;30;20213;-76
2022/12/09 18:18:54;;;;;;;28.83;13.30;;;;;0.20;100137.00;;;;9775045;30;20240;-76
2022/12/09 18:23:56;;;;;;;39.00;15.93;;;;;0.10;100144.00;;;;9754684;30;20197;-76
2022/12/09 18:28:58;;;;;;;41.80;15.73;;;;;0.10;100147.00;;;;9735775;30;20233;-76
2022/12/09 18:34:00;;;;;;;34.33;13.60;;;;;0.10;100157.00;;;;9760623;30;20698;-76
2022/12/09 18:39:03;;;;;;;37.23;14.17;;;;;0.10;100157.00;;;;9741322;30;20263;-76
2022/12/09 18:44:06;;;;;;;37.83;14.80;;;;;0.10;100160.00;;;;9774336;30;20205;-76
2022/12/09 18:49:13;;;;;;;42.90;16.83;;;;;0.10;100171.00;;;;9738041;30;20288;-76
2022/12/09 18:54:18;;;;;;;41.37;14.30;;;;;0.20;100164.00;;;;9760717;30;20214;-76
2022/12/09 18:59:22;;;;;;;33.73;12.77;;;;;0.20;100179.00;;;;9757988;30;20560;-75
2022/12/09 19:04:26;;;;;;;35.87;14.20;;;;;0.10;100183.00;;;;9774350;30;20213;-75
2022/12/09 19:09:33;;;;;;;38.00;14.87;;;;;0.00;100179.00;;;;9745824;30;20247;-76
2022/12/09 19:14:37;;;;;;;38.07;13.07;;;;;-0.10;100177.00;;;;9725115;30;20240;-75
2022/12/09 19:19:39;;;;;;;32.90;12.73;;;;;-0.30;100182.00;;;;9736922;30;20206;-76
2022/12/09 19:24:41;;;;;;;39.57;14.93;;;;;-0.40;100186.00;;;;9775312;30;20261;-75
2022/12/09 19:29:44;;;;;;;32.57;13.03;;;;;-0.50;100189.00;;;;9745485;30;20265;-75
2022/12/09 19:34:46;;;;;;;37.47;14.37;;;;;-0.40;100198.00;;;;9761580;30;20358;-76
2022/12/09 19:39:49;;;;;;;31.20;13.03;;;;;-0.40;100194.00;;;;9764686;30;20706;-76
2022/12/09 19:44:51;;;;;;;44.00;15.03;;;;;-0.30;100206.00;;;;9775238;30;20190;-76
2022/12/09 19:50:03;;;;;;;37.57;14.70;;;;;-0.30;100203.00;;;;9754877;30;20201;-76
2022/12/09 19:55:07;;;;;;;37.97;13.80;;;;;-0.30;100217.00;;;;9752886;30;20210;-76
2022/12/09 20:00:10;;;;;;;38.90;14.73;;;;;-0.30;100209.00;;;;9749667;30;20694;-76
2022/12/09 20:05:13;;;;;;;42.43;16.53;;;;;-0.30;100218.00;;;;9751998;30;20859;-76
2022/12/09 20:10:14;;;;;;;35.40;13.00;;;;;-0.30;100212.00;;;;9751548;30;20296;-76
2022/12/09 20:15:17;;;;;;;35.10;12.80;;;;;-0.30;100219.00;;;;9765925;30;20212;-76
2022/12/09 20:20:18;;;;;;;37.70;13.63;;;;;-0.40;100223.00;;;;9764700;30;20206;-75
2022/12/09 20:25:20;;;;;;;35.63;13.47;;;;;-0.40;100222.00;;;;9751319;30;20650;-75
2022/12/09 20:30:22;;;;;;;43.03;15.13;;;;;-0.40;100218.00;;;;9768045;30;20221;-76
2022/12/09 20:35:25;;;;;;;41.47;12.93;;;;;-0.40;100223.00;;;;9765627;30;20606;-76
2022/12/09 20:40:27;;;;;;;34.40;12.57;;;;;-0.50;100229.00;;;;9737567;30;20201;-75
2022/12/09 20:45:29;;;;;;;42.90;13.70;;;;;-0.50;100228.00;;;;9779338;30;20206;-75
2022/12/09 20:50:31;;;;;;;27.57;11.17;;;;;-0.60;100236.00;;;;9776767;30;20222;-76
2022/12/09 20:55:39;;;;;;;28.10;12.10;;;;;-0.70;100224.00;;;;9742411;30;20209;-76
2022/12/09 21:00:41;;;;;;;27.50;11.30;;;;;-0.70;100225.00;;;;9719590;30;20202;-76
2022/12/09 21:05:43;;;;;;;29.40;11.13;;;;;-0.70;100238.00;;;;9778807;30;20218;-75
2022/12/09 21:10:45;;;;;;;25.77;9.57;;;;;-0.70;100228.00;;;;9763492;30;20217;-75
2022/12/09 21:15:47;;;;;;;27.70;9.60;;;;;-0.80;100237.00;;;;9778368;30;20277;-75
2022/12/09 21:20:49;;;;;;;23.10;10.30;;;;;-0.90;100237.00;;;;9757061;30;20326;-75
2022/12/09 21:25:51;;;;;;;26.17;9.27;;;;;-0.90;100237.00;;;;9727228;30;20241;-75
2022/12/09 21:30:53;;;;;;;21.67;8.93;;;;;-0.90;100248.00;;;;9758934;30;20233;-75
2022/12/09 21:35:55;;;;;;;23.03;8.50;;;;;-1.00;100235.00;;;;9757334;30;20218;-75
2022/12/09 21:41:04;;;;;;;24.13;9.90;;;;;-0.90;100249.00;;;;9741364;30;20190;-75
2022/12/09 21:46:09;;;;;;;22.13;9.53;;;;;-0.90;100242.00;;;;9749916;30;20290;-75
2022/12/09 21:51:12;;;;;;;26.60;11.13;;;;;-0.80;100251.00;;;;9761042;30;20210;-76
2022/12/09 21:56:16;;;;;;;25.50;11.30;;;;;-0.80;100250.00;;;;9724678;30;20221;-76
2022/12/09 22:01:24;;;;;;;29.17;13.07;;;;;-0.80;100254.00;;;;9711536;30;20210;-76
2022/12/09 22:06:28;;;;;;;32.60;14.80;;;;;-0.80;100256.00;;;;9710538;30;20228;-76
2022/12/09 22:11:33;;;;;;;32.60;12.93;;;;;-0.80;100256.00;;;;9731129;30;20249;-75
2022/12/09 22:16:41;;;;;;;29.13;11.63;;;;;-0.80;100251.00;;;;9774019;30;20952;-75
2022/12/09 22:21:44;;;;;;;35.33;12.97;;;;;-0.80;100267.00;;;;9711377;30;20199;-75
2022/12/09 22:26:46;;;;;;;32.27;13.83;;;;;-0.90;100256.00;;;;9754983;30;20578;-75
2022/12/09 22:31:48;;;;;;;36.40;13.63;;;;;-0.80;100254.00;;;;9739374;30;20226;-75
2022/12/09 22:36:52;;;;;;;38.70;13.77;;;;;-0.80;100262.00;;;;9718678;30;20219;-75
2022/12/09 22:41:54;;;;;;;32.90;13.33;;;;;-0.90;100256.00;;;;9760937;30;20206;-75
2022/12/09 22:46:56;;;;;;;32.67;13.57;;;;;-1.00;100258.00;;;;9779609;30;20743;-75
2022/12/09 22:51:58;;;;;;;32.23;13.40;;;;;-1.00;100265.00;;;;9755693;30;20759;-75
2022/12/09 22:57:01;;;;;;;41.93;15.63;;;;;-0.90;100268.00;;;;9749909;30;20280;-75
2022/12/09 23:02:03;;;;;;;39.03;17.10;;;;;-0.90;100267.00;;;;9772695;30;20664;-75
2022/12/09 23:07:06;;;;;;;34.83;14.27;;;;;-0.90;100262.00;;;;9753022;30;20210;-75
2022/12/09 23:12:08;;;;;;;37.97;14.93;;;;;-0.90;100274.00;;;;9757104;30;20217;-75
2022/12/09 23:17:10;;;;;;;34.27;15.00;;;;;-1.00;100275.00;;;;9768003;30;20240;-75
2022/12/09 23:22:12;;;;;;;34.07;15.33;;;;;-1.10;100282.00;;;;9736393;30;20202;-75
2022/12/09 23:27:14;;;;;;;34.43;14.27;;;;;-1.10;100285.00;;;;9747703;30;20337;-75
2022/12/09 23:32:16;;;;;;;30.40;13.03;;;;;-1.10;100282.00;;;;9744452;30;20238;-75
2022/12/09 23:37:18;;;;;;;34.70;14.57;;;;;-1.00;100286.00;;;;9761284;30;20202;-75
2022/12/09 23:42:21;;;;;;;36.43;13.77;;;;;-1.10;100282.00;;;;9736711;30;20293;-75
2022/12/09 23:47:22;;;;;;;35.83;14.60;;;;;-1.00;100284.00;;;;9781974;30;20271;-75
2022/12/09 23:52:24;;;;;;;37.43;14.17;;;;;-1.00;100282.00;;;;9765891;30;20285;-75
2022/12/09 23:57:26;;;;;;;35.37;14.60;;;;;-1.00;100284.00;;;;9751569;30;20198;-75
